createdAt,value
2023-01-19T00:00:48.889Z,99729.31
2023-01-19T00:05:52.752Z,99727.38
2023-01-19T00:10:56.277Z,99729.97
2023-01-19T00:16:01.326Z,99734.22
2023-01-19T00:21:04.195Z,99724.81
2023-01-19T00:26:14.129Z,99734.22
2023-01-19T00:31:22.109Z,99732.53
2023-01-19T00:36:27.321Z,99727.91
2023-01-19T00:41:44.161Z,99736.97
2023-01-19T00:46:48.501Z,99735.78
2023-01-19T00:51:51.575Z,99735.66
2023-01-19T00:56:55.059Z,99737.22
2023-01-19T01:02:03.681Z,99736.31
2023-01-19T01:07:08.649Z,99737.97
2023-01-19T01:12:11.928Z,99745.47
2023-01-19T01:17:18.254Z,99753.97
2023-01-19T01:22:21.063Z,99756.28
2023-01-19T01:27:24.554Z,99756.28
2023-01-19T01:32:31.315Z,99749.47
2023-01-19T01:37:36.452Z,99740.19
2023-01-19T01:42:41.061Z,99747.41
2023-01-19T01:47:57.548Z,99754.50
2023-01-19T01:53:07.639Z,99746.91
2023-01-19T01:58:12.911Z,99746.22
2023-01-19T02:03:18.686Z,99748.03
2023-01-19T02:08:46.953Z,99743.13
2023-01-19T02:13:50.958Z,99739.03
2023-01-19T02:18:55.365Z,99744.44
2023-01-19T02:24:04.368Z,99736.81
2023-01-19T02:29:11.450Z,99730.91
2023-01-19T02:34:18.288Z,99734.47
2023-01-19T02:39:28.723Z,99736.44
2023-01-19T02:44:34.429Z,99738.50
2023-01-19T02:49:39.072Z,99749.06
2023-01-19T02:54:57.774Z,99740.69
2023-01-19T03:00:13.708Z,99742.59
2023-01-19T03:05:31.396Z,99756.53
2023-01-19T03:10:45.386Z,99748.91
2023-01-19T03:15:51.526Z,99752.00
2023-01-19T03:20:59.440Z,99755.63
2023-01-19T03:26:06.990Z,99754.94
2023-01-19T03:31:17.780Z,99749.13
2023-01-19T03:36:26.025Z,99749.25
2023-01-19T03:41:34.358Z,99750.31
2023-01-19T03:46:39.143Z,99738.41
2023-01-19T03:51:42.399Z,99756.97
2023-01-19T03:56:54.164Z,99758.16
2023-01-19T04:02:15.569Z,99749.75
2023-01-19T04:07:20.631Z,99748.31
2023-01-19T04:12:46.186Z,99749.47
2023-01-19T04:25:03.640Z,99756.53
2023-01-19T04:30:13.440Z,99750.72
2023-01-19T04:35:32.447Z,99757.19
2023-01-19T04:40:51.394Z,99761.28
2023-01-19T04:46:11.906Z,99749.50
2023-01-19T04:51:15.286Z,99755.97
2023-01-19T04:56:20.839Z,99742.47
2023-01-19T05:01:40.681Z,99739.38
2023-01-19T05:06:46.859Z,99751.88
2023-01-19T05:11:55.650Z,99749.78
2023-01-19T05:17:05.139Z,99751.81
2023-01-19T05:22:10.367Z,99734.88
2023-01-19T05:27:14.894Z,99736.94
2023-01-19T05:32:21.230Z,99734.59
2023-01-19T05:37:27.618Z,99723.72
2023-01-19T05:42:39.284Z,99712.84
2023-01-19T05:47:48.335Z,99711.38
2023-01-19T05:52:54.085Z,99727.22
2023-01-19T05:57:57.110Z,99721.53
2023-01-19T06:03:02.657Z,99728.84
2023-01-19T06:08:06.557Z,99728.97
2023-01-19T06:13:11.509Z,99739.44
2023-01-19T06:18:16.430Z,99751.94
2023-01-19T06:23:21.839Z,99752.28
2023-01-19T06:28:26.040Z,99752.63
2023-01-19T06:33:30.461Z,99751.97
2023-01-19T06:38:33.708Z,99754.78
2023-01-19T06:43:37.465Z,99762.66
2023-01-19T06:48:42.154Z,99773.94
2023-01-19T06:53:47.310Z,99781.03
2023-01-19T06:58:50.610Z,99783.50
2023-01-19T07:03:54.906Z,99783.50
2023-01-19T07:09:01.057Z,99788.09
2023-01-19T07:14:04.162Z,99789.16
2023-01-19T07:19:11.050Z,99790.97
2023-01-19T07:24:14.085Z,99790.97
2023-01-19T07:29:16.837Z,99795.31
2023-01-19T07:34:23.177Z,99797.25
2023-01-19T07:39:27.440Z,99797.38
2023-01-19T07:49:48.763Z,99795.78
2023-01-19T07:54:52.078Z,99803.81
2023-01-19T07:59:55.279Z,99814.28
2023-01-19T08:05:01.669Z,99804.16
2023-01-19T08:10:05.039Z,99804.38
2023-01-19T08:15:16.657Z,99813.53
2023-01-19T08:20:24.279Z,99815.53
2023-01-19T08:31:05.327Z,99837.44
2023-01-19T08:36:17.259Z,99833.53
2023-01-19T08:41:19.826Z,99845.09
2023-01-19T08:46:23.747Z,99851.44
2023-01-19T08:51:26.450Z,99854.25
2023-01-19T08:56:29.730Z,99858.06
2023-01-19T09:01:33.678Z,99849.75
2023-01-19T09:06:36.346Z,99856.88
2023-01-19T09:11:38.860Z,99854.59
2023-01-19T09:16:43.302Z,99849.22
2023-01-19T09:21:45.806Z,99858.13
2023-01-19T09:26:48.308Z,99848.31
2023-01-19T09:31:52.246Z,99850.13
2023-01-19T09:36:55.023Z,99842.25
2023-01-19T09:42:06.776Z,99850.91
2023-01-19T09:47:17.518Z,99849.91
2023-01-19T09:52:20.611Z,99855.63
2023-01-19T09:57:23.623Z,99857.00
2023-01-19T10:02:37.298Z,99848.25
2023-01-19T10:07:58.120Z,99850.59
2023-01-19T10:13:16.890Z,99848.47
2023-01-19T10:18:26.412Z,99850.69
2023-01-19T10:23:42.307Z,99854.25
2023-01-19T10:28:48.015Z,99864.59
2023-01-19T10:33:52.232Z,99857.34
2023-01-19T10:38:54.836Z,99852.94
2023-01-19T10:44:02.869Z,99856.09
2023-01-19T10:49:07.688Z,99852.41
2023-01-19T10:54:14.152Z,99864.25
2023-01-19T10:59:31.978Z,99864.06
2023-01-19T11:04:35.809Z,99858.53
2023-01-19T11:09:38.283Z,99852.56
2023-01-19T11:14:40.880Z,99851.53
2023-01-19T11:19:53.134Z,99855.72
2023-01-19T11:25:03.155Z,99867.94
2023-01-19T11:30:15.839Z,99861.81
2023-01-19T11:35:38.613Z,99861.13
2023-01-19T11:40:42.859Z,99866.75
2023-01-19T11:45:46.856Z,99864.59
2023-01-19T11:50:51.264Z,99873.03
2023-01-19T11:55:58.535Z,99865.66
2023-01-19T12:01:06.162Z,99874.47
2023-01-19T12:06:13.430Z,99879.97
2023-01-19T12:11:20.094Z,99874.28
2023-01-19T12:16:23.907Z,99885.00
2023-01-19T12:21:27.812Z,99880.22
2023-01-19T12:26:36.702Z,99883.00
2023-01-19T12:31:42.767Z,99887.31
2023-01-19T12:36:46.748Z,99886.53
2023-01-19T12:41:51.012Z,99897.03
2023-01-19T12:46:57.309Z,99895.22
2023-01-19T12:52:30.686Z,99900.50
2023-01-19T12:57:36.571Z,99905.03
2023-01-19T13:02:44.388Z,99906.03
2023-01-19T13:08:23.529Z,99905.13
2023-01-19T13:13:28.014Z,99912.63
2023-01-19T13:18:35.029Z,99905.63
2023-01-19T13:29:11.703Z,99923.00
2023-01-19T13:34:17.743Z,99925.72
2023-01-19T13:39:27.715Z,99925.91
2023-01-19T13:44:37.252Z,99925.72
2023-01-19T13:49:43.908Z,99936.41
2023-01-19T13:54:51.253Z,99935.72
2023-01-19T14:00:16.488Z,99942.75
2023-01-19T14:05:23.941Z,99948.72
2023-01-19T14:10:26.915Z,99947.69
2023-01-19T14:15:34.764Z,99960.59
2023-01-19T14:20:39.579Z,99972.47
2023-01-19T14:25:46.216Z,99967.75
2023-01-19T14:30:58.267Z,99965.75
2023-01-19T14:36:10.677Z,99980.00
2023-01-19T14:41:22.643Z,100001.47
2023-01-19T14:46:47.800Z,100002.94
2023-01-19T14:51:52.428Z,99999.34
2023-01-19T14:56:57.327Z,100013.00
2023-01-19T15:02:06.674Z,100017.97
2023-01-19T15:07:18.447Z,100024.88
2023-01-19T15:12:28.463Z,100036.94
2023-01-19T15:17:34.105Z,100036.06
2023-01-19T15:22:38.966Z,100035.03
2023-01-19T15:27:42.510Z,100046.91
2023-01-19T15:32:47.277Z,100054.69
2023-01-19T15:37:51.859Z,100061.44
2023-01-19T15:42:55.052Z,100054.25
2023-01-19T15:48:00.004Z,100060.00
2023-01-19T15:53:04.035Z,100067.00
2023-01-19T15:58:08.959Z,100075.59
2023-01-19T16:03:15.940Z,100082.34
2023-01-19T16:08:20.037Z,100083.84
2023-01-19T16:13:23.032Z,100086.31
2023-01-19T16:18:28.807Z,100093.88
2023-01-19T16:23:31.769Z,100091.41
2023-01-19T16:28:35.753Z,100096.47
2023-01-19T16:33:39.980Z,100085.06
2023-01-19T16:38:43.226Z,100104.81
2023-01-19T16:43:51.649Z,100108.19
2023-01-19T16:49:01.568Z,100114.28
2023-01-19T16:54:05.924Z,100102.13
2023-01-19T16:59:11.941Z,100120.19
2023-01-19T17:04:20.368Z,100113.06
2023-01-19T17:09:23.316Z,100121.63
2023-01-19T17:14:26.239Z,100120.84
2023-01-19T17:19:35.813Z,100132.13
2023-01-19T17:24:42.566Z,100130.44
2023-01-19T17:29:52.704Z,100140.13
2023-01-19T17:34:58.957Z,100145.00
2023-01-19T17:40:04.457Z,100147.97
2023-01-19T17:45:08.482Z,100158.13
2023-01-19T17:50:14.794Z,100161.50
2023-01-19T17:55:29.148Z,100166.69
2023-01-19T18:00:33.025Z,100175.41
2023-01-19T18:05:38.339Z,100174.94
2023-01-19T18:10:42.896Z,100174.38
2023-01-19T18:15:52.479Z,100179.09
2023-01-19T18:20:59.571Z,100182.00
2023-01-19T18:26:04.891Z,100182.31
2023-01-19T18:31:09.520Z,100182.53
2023-01-19T18:42:50.013Z,100182.31
2023-01-19T18:47:53.387Z,100193.50
2023-01-19T18:52:57.571Z,100199.44
2023-01-19T18:58:05.693Z,100199.59
2023-01-19T19:15:17.783Z,100219.53
2023-01-19T19:40:02.663Z,100250.03
2023-01-19T19:51:19.672Z,100251.41
2023-01-19T19:56:28.440Z,100253.78
2023-01-19T20:01:34.613Z,100256.03
2023-01-19T20:06:41.815Z,100267.88
2023-01-19T20:17:14.582Z,100282.97
2023-01-19T20:22:19.965Z,100289.50
2023-01-19T20:27:24.477Z,100300.41
2023-01-19T20:32:27.704Z,100309.25
2023-01-19T20:37:34.483Z,100315.44
2023-01-19T20:42:41.698Z,100319.19
2023-01-19T20:48:06.101Z,100323.59
2023-01-19T20:53:18.951Z,100327.78
2023-01-19T20:58:23.056Z,100342.19
2023-01-19T21:03:29.846Z,100340.94
2023-01-19T21:08:34.854Z,100358.50
2023-01-19T21:13:38.860Z,100364.09
2023-01-19T21:18:47.587Z,100368.56
2023-01-19T21:24:04.945Z,100377.44
2023-01-19T21:29:14.921Z,100372.28
2023-01-19T21:34:28.506Z,100394.78
2023-01-19T21:39:37.435Z,100390.53
2023-01-19T21:44:41.835Z,100398.47
2023-01-19T21:49:48.265Z,100395.78
2023-01-19T21:54:53.045Z,100413.03
2023-01-19T22:00:00.012Z,100418.38
2023-01-19T22:05:03.371Z,100419.41
2023-01-19T22:10:30.136Z,100424.84
2023-01-19T22:15:39.502Z,100425.91
2023-01-19T22:20:42.971Z,100435.72
2023-01-19T22:25:48.868Z,100443.13
2023-01-19T22:30:52.272Z,100449.88
2023-01-19T22:35:56.115Z,100444.94
2023-01-19T22:41:30.206Z,100456.06
2023-01-19T22:52:21.331Z,100473.03
2023-01-19T22:57:23.875Z,100466.03
2023-01-19T23:02:26.339Z,100474.56
2023-01-19T23:07:30.159Z,100479.38
2023-01-19T23:12:32.646Z,100478.84
2023-01-19T23:17:35.147Z,100489.19
2023-01-19T23:22:39.769Z,100492.41
2023-01-19T23:27:42.238Z,100504.19
2023-01-19T23:32:48.209Z,100503.16
2023-01-19T23:37:52.053Z,100511.53
2023-01-19T23:42:55.838Z,100519.94
2023-01-19T23:47:58.319Z,100519.56
2023-01-19T23:53:02.128Z,100533.00
2023-01-19T23:58:04.663Z,100536.25
